sensor_id;sensor_type;location;lat;lon;timestamp;P1;durP1;ratioP1;P2;durP2;ratioP2
29916;SDS011;16786;49.466;11.068;2022-07-23T00:00:29;12.48;;;11.15;;
29916;SDS011;16786;49.466;11.068;2022-07-23T00:03:04;13.63;;;12.07;;
29916;SDS011;16786;49.466;11.068;2022-07-23T00:05:32;13.85;;;12.18;;
29916;SDS011;16786;49.466;11.068;2022-07-23T00:08:01;14.75;;;12.02;;
29916;SDS011;16786;49.466;11.068;2022-07-23T00:10:28;14.38;;;12.82;;
29916;SDS011;16786;49.466;11.068;2022-07-23T00:12:55;14.55;;;12.90;;
29916;SDS011;16786;49.466;11.068;2022-07-23T00:15:23;14.25;;;12.68;;
29916;SDS011;16786;49.466;11.068;2022-07-23T00:17:50;17.20;;;13.27;;
29916;SDS011;16786;49.466;11.068;2022-07-23T00:20:18;15.20;;;12.48;;
29916;SDS011;16786;49.466;11.068;2022-07-23T00:22:49;14.65;;;13.10;;
29916;SDS011;16786;49.466;11.068;2022-07-23T00:25:18;13.75;;;12.43;;
29916;SDS011;16786;49.466;11.068;2022-07-23T00:27:59;15.35;;;13.73;;
29916;SDS011;16786;49.466;11.068;2022-07-23T00:30:28;15.32;;;13.73;;
29916;SDS011;16786;49.466;11.068;2022-07-23T00:33:01;15.10;;;13.57;;
29916;SDS011;16786;49.466;11.068;2022-07-23T00:35:34;15.65;;;13.82;;
29916;SDS011;16786;49.466;11.068;2022-07-23T00:38:03;16.92;;;13.80;;
29916;SDS011;16786;49.466;11.068;2022-07-23T00:40:31;14.48;;;12.98;;
29916;SDS011;16786;49.466;11.068;2022-07-23T00:43:01;14.93;;;13.35;;
29916;SDS011;16786;49.466;11.068;2022-07-23T00:45:29;15.05;;;13.55;;
29916;SDS011;16786;49.466;11.068;2022-07-23T00:47:57;14.55;;;13.07;;
29916;SDS011;16786;49.466;11.068;2022-07-23T00:50:25;15.43;;;13.93;;
29916;SDS011;16786;49.466;11.068;2022-07-23T00:52:52;16.25;;;14.20;;
29916;SDS011;16786;49.466;11.068;2022-07-23T00:55:20;16.05;;;14.45;;
29916;SDS011;16786;49.466;11.068;2022-07-23T00:57:48;18.02;;;14.27;;
29916;SDS011;16786;49.466;11.068;2022-07-23T01:00:17;15.98;;;14.38;;
29916;SDS011;16786;49.466;11.068;2022-07-23T01:02:44;18.27;;;14.32;;
29916;SDS011;16786;49.466;11.068;2022-07-23T01:05:14;16.95;;;14.27;;
29916;SDS011;16786;49.466;11.068;2022-07-23T01:07:42;15.68;;;14.10;;
29916;SDS011;16786;49.466;11.068;2022-07-23T01:10:09;16.95;;;14.20;;
29916;SDS011;16786;49.466;11.068;2022-07-23T01:12:56;18.00;;;13.95;;
29916;SDS011;16786;49.466;11.068;2022-07-23T01:15:23;16.30;;;13.55;;
29916;SDS011;16786;49.466;11.068;2022-07-23T01:17:51;15.98;;;14.23;;
29916;SDS011;16786;49.466;11.068;2022-07-23T01:20:19;17.52;;;13.70;;
29916;SDS011;16786;49.466;11.068;2022-07-23T01:22:47;15.10;;;12.80;;
29916;SDS011;16786;49.466;11.068;2022-07-23T01:25:14;14.77;;;13.20;;
29916;SDS011;16786;49.466;11.068;2022-07-23T01:27:52;15.55;;;13.93;;
29916;SDS011;16786;49.466;11.068;2022-07-23T01:30:20;13.50;;;12.10;;
29916;SDS011;16786;49.466;11.068;2022-07-23T01:32:47;15.10;;;13.60;;
29916;SDS011;16786;49.466;11.068;2022-07-23T01:35:18;16.45;;;14.25;;
29916;SDS011;16786;49.466;11.068;2022-07-23T01:37:46;14.98;;;13.30;;
29916;SDS011;16786;49.466;11.068;2022-07-23T01:40:16;15.15;;;13.15;;
29916;SDS011;16786;49.466;11.068;2022-07-23T01:42:44;20.63;;;15.13;;
29916;SDS011;16786;49.466;11.068;2022-07-23T01:45:13;18.33;;;15.60;;
29916;SDS011;16786;49.466;11.068;2022-07-23T01:47:45;18.25;;;14.65;;
29916;SDS011;16786;49.466;11.068;2022-07-23T01:50:14;21.10;;;16.15;;
29916;SDS011;16786;49.466;11.068;2022-07-23T01:53:17;18.88;;;15.18;;
29916;SDS011;16786;49.466;11.068;2022-07-23T01:55:44;19.15;;;15.85;;
29916;SDS011;16786;49.466;11.068;2022-07-23T01:58:12;18.02;;;14.70;;
29916;SDS011;16786;49.466;11.068;2022-07-23T02:00:39;19.85;;;15.30;;
29916;SDS011;16786;49.466;11.068;2022-07-23T02:03:08;17.35;;;14.63;;
29916;SDS011;16786;49.466;11.068;2022-07-23T02:05:36;19.10;;;14.70;;
29916;SDS011;16786;49.466;11.068;2022-07-23T02:08:04;17.33;;;15.07;;
29916;SDS011;16786;49.466;11.068;2022-07-23T02:10:34;18.48;;;15.18;;
29916;SDS011;16786;49.466;11.068;2022-07-23T02:13:02;16.23;;;14.55;;
29916;SDS011;16786;49.466;11.068;2022-07-23T02:15:30;16.30;;;14.70;;
29916;SDS011;16786;49.466;11.068;2022-07-23T02:17:58;16.17;;;13.93;;
29916;SDS011;16786;49.466;11.068;2022-07-23T02:20:25;16.35;;;14.55;;
29916;SDS011;16786;49.466;11.068;2022-07-23T02:22:53;16.42;;;14.55;;
29916;SDS011;16786;49.466;11.068;2022-07-23T02:25:20;15.15;;;13.55;;
29916;SDS011;16786;49.466;11.068;2022-07-23T02:27:53;17.38;;;13.65;;
29916;SDS011;16786;49.466;11.068;2022-07-23T02:30:21;14.85;;;13.20;;
29916;SDS011;16786;49.466;11.068;2022-07-23T02:32:48;15.52;;;13.75;;
29916;SDS011;16786;49.466;11.068;2022-07-23T02:35:15;18.08;;;14.25;;
29916;SDS011;16786;49.466;11.068;2022-07-23T02:37:43;18.33;;;14.20;;
29916;SDS011;16786;49.466;11.068;2022-07-23T02:40:10;15.43;;;13.85;;
29916;SDS011;16786;49.466;11.068;2022-07-23T02:42:41;16.25;;;13.55;;
29916;SDS011;16786;49.466;11.068;2022-07-23T02:45:09;15.85;;;14.25;;
29916;SDS011;16786;49.466;11.068;2022-07-23T02:47:38;16.00;;;13.63;;
29916;SDS011;16786;49.466;11.068;2022-07-23T02:50:06;16.70;;;14.18;;
29916;SDS011;16786;49.466;11.068;2022-07-23T02:55:06;15.27;;;13.65;;
29916;SDS011;16786;49.466;11.068;2022-07-23T02:57:34;16.45;;;13.93;;
29916;SDS011;16786;49.466;11.068;2022-07-23T03:00:04;16.05;;;14.40;;
29916;SDS011;16786;49.466;11.068;2022-07-23T03:02:33;16.00;;;14.38;;
29916;SDS011;16786;49.466;11.068;2022-07-23T03:05:01;17.05;;;14.07;;
29916;SDS011;16786;49.466;11.068;2022-07-23T03:07:28;17.10;;;13.52;;
29916;SDS011;16786;49.466;11.068;2022-07-23T03:09:56;15.23;;;13.52;;
29916;SDS011;16786;49.466;11.068;2022-07-23T03:12:23;18.42;;;13.95;;
29916;SDS011;16786;49.466;11.068;2022-07-23T03:14:50;15.55;;;13.93;;
29916;SDS011;16786;49.466;11.068;2022-07-23T03:17:18;19.52;;;14.27;;
29916;SDS011;16786;49.466;11.068;2022-07-23T03:19:46;16.55;;;14.77;;
29916;SDS011;16786;49.466;11.068;2022-07-23T03:22:13;17.17;;;14.35;;
29916;SDS011;16786;49.466;11.068;2022-07-23T03:24:41;17.42;;;14.13;;
29916;SDS011;16786;49.466;11.068;2022-07-23T03:27:24;16.85;;;13.82;;
29916;SDS011;16786;49.466;11.068;2022-07-23T03:29:54;15.40;;;13.80;;
29916;SDS011;16786;49.466;11.068;2022-07-23T03:32:23;18.35;;;14.52;;
29916;SDS011;16786;49.466;11.068;2022-07-23T03:34:51;17.58;;;14.23;;
29916;SDS011;16786;49.466;11.068;2022-07-23T03:37:19;17.05;;;14.38;;
29916;SDS011;16786;49.466;11.068;2022-07-23T03:39:47;16.48;;;14.77;;
29916;SDS011;16786;49.466;11.068;2022-07-23T03:42:14;16.15;;;14.48;;
29916;SDS011;16786;49.466;11.068;2022-07-23T03:44:44;15.43;;;13.90;;
29916;SDS011;16786;49.466;11.068;2022-07-23T03:47:12;15.07;;;13.48;;
29916;SDS011;16786;49.466;11.068;2022-07-23T03:49:40;14.32;;;12.88;;
29916;SDS011;16786;49.466;11.068;2022-07-23T03:52:08;15.77;;;14.07;;
29916;SDS011;16786;49.466;11.068;2022-07-23T03:54:35;14.90;;;13.30;;
29916;SDS011;16786;49.466;11.068;2022-07-23T03:57:02;15.88;;;13.73;;
29916;SDS011;16786;49.466;11.068;2022-07-23T03:59:32;15.88;;;14.07;;
29916;SDS011;16786;49.466;11.068;2022-07-23T04:01:59;15.23;;;13.80;;
29916;SDS011;16786;49.466;11.068;2022-07-23T04:04:27;15.68;;;14.07;;
29916;SDS011;16786;49.466;11.068;2022-07-23T04:06:55;16.88;;;14.68;;
29916;SDS011;16786;49.466;11.068;2022-07-23T04:09:23;15.82;;;14.13;;
29916;SDS011;16786;49.466;11.068;2022-07-23T04:11:50;18.88;;;14.60;;
29916;SDS011;16786;49.466;11.068;2022-07-23T04:14:18;17.45;;;13.77;;
29916;SDS011;16786;49.466;11.068;2022-07-23T04:16:46;17.10;;;15.30;;
29916;SDS011;16786;49.466;11.068;2022-07-23T04:19:13;16.73;;;14.18;;
29916;SDS011;16786;49.466;11.068;2022-07-23T04:21:53;19.10;;;15.77;;
29916;SDS011;16786;49.466;11.068;2022-07-23T04:24:20;17.83;;;15.85;;
29916;SDS011;16786;49.466;11.068;2022-07-23T04:26:48;16.48;;;14.77;;
29916;SDS011;16786;49.466;11.068;2022-07-23T04:29:15;16.77;;;15.05;;
29916;SDS011;16786;49.466;11.068;2022-07-23T04:31:43;21.13;;;15.02;;
29916;SDS011;16786;49.466;11.068;2022-07-23T04:34:10;15.38;;;13.88;;
29916;SDS011;16786;49.466;11.068;2022-07-23T04:36:37;15.68;;;14.07;;
29916;SDS011;16786;49.466;11.068;2022-07-23T04:39:05;15.70;;;13.77;;
29916;SDS011;16786;49.466;11.068;2022-07-23T04:41:33;16.27;;;14.18;;
29916;SDS011;16786;49.466;11.068;2022-07-23T04:44:01;16.02;;;14.32;;
29916;SDS011;16786;49.466;11.068;2022-07-23T04:46:30;16.33;;;14.57;;
29916;SDS011;16786;49.466;11.068;2022-07-23T04:48:57;15.02;;;13.43;;
29916;SDS011;16786;49.466;11.068;2022-07-23T04:51:26;17.25;;;12.68;;
29916;SDS011;16786;49.466;11.068;2022-07-23T04:53:53;13.93;;;12.63;;
29916;SDS011;16786;49.466;11.068;2022-07-23T04:56:21;18.67;;;13.20;;
29916;SDS011;16786;49.466;11.068;2022-07-23T04:58:49;14.50;;;13.00;;
29916;SDS011;16786;49.466;11.068;2022-07-23T05:01:16;18.65;;;14.05;;
29916;SDS011;16786;49.466;11.068;2022-07-23T05:03:44;14.10;;;12.70;;
29916;SDS011;16786;49.466;11.068;2022-07-23T05:06:12;12.68;;;11.38;;
29916;SDS011;16786;49.466;11.068;2022-07-23T05:08:39;14.23;;;12.88;;
29916;SDS011;16786;49.466;11.068;2022-07-23T05:11:08;13.65;;;10.68;;
29916;SDS011;16786;49.466;11.068;2022-07-23T05:13:36;14.57;;;12.02;;
29916;SDS011;16786;49.466;11.068;2022-07-23T05:16:06;12.85;;;11.57;;
29916;SDS011;16786;49.466;11.068;2022-07-23T05:18:34;12.65;;;11.45;;
29916;SDS011;16786;49.466;11.068;2022-07-23T05:21:02;13.10;;;11.82;;
29916;SDS011;16786;49.466;11.068;2022-07-23T05:23:29;11.93;;;10.77;;
29916;SDS011;16786;49.466;11.068;2022-07-23T05:25:57;12.07;;;10.93;;
29916;SDS011;16786;49.466;11.068;2022-07-23T05:28:25;12.55;;;11.30;;
29916;SDS011;16786;49.466;11.068;2022-07-23T05:30:53;11.95;;;10.68;;
29916;SDS011;16786;49.466;11.068;2022-07-23T05:33:21;11.82;;;10.63;;
29916;SDS011;16786;49.466;11.068;2022-07-23T05:35:49;10.68;;;9.68;;
29916;SDS011;16786;49.466;11.068;2022-07-23T05:38:31;12.15;;;10.48;;
29916;SDS011;16786;49.466;11.068;2022-07-23T05:41:00;12.20;;;10.98;;
29916;SDS011;16786;49.466;11.068;2022-07-23T05:43:29;11.13;;;10.02;;
29916;SDS011;16786;49.466;11.068;2022-07-23T05:45:59;12.93;;;10.13;;
29916;SDS011;16786;49.466;11.068;2022-07-23T05:48:28;10.73;;;9.57;;
29916;SDS011;16786;49.466;11.068;2022-07-23T05:51:00;11.10;;;9.82;;
29916;SDS011;16786;49.466;11.068;2022-07-23T05:53:31;11.80;;;9.35;;
29916;SDS011;16786;49.466;11.068;2022-07-23T05:56:05;10.35;;;9.40;;
29916;SDS011;16786;49.466;11.068;2022-07-23T05:58:32;10.48;;;8.75;;
29916;SDS011;16786;49.466;11.068;2022-07-23T06:01:00;9.77;;;8.88;;
29916;SDS011;16786;49.466;11.068;2022-07-23T06:03:34;10.27;;;9.25;;
29916;SDS011;16786;49.466;11.068;2022-07-23T06:06:01;10.25;;;9.25;;
29916;SDS011;16786;49.466;11.068;2022-07-23T06:08:28;9.35;;;8.45;;
29916;SDS011;16786;49.466;11.068;2022-07-23T06:10:56;9.50;;;8.70;;
29916;SDS011;16786;49.466;11.068;2022-07-23T06:13:23;12.88;;;9.13;;
29916;SDS011;16786;49.466;11.068;2022-07-23T06:15:50;10.30;;;9.35;;
29916;SDS011;16786;49.466;11.068;2022-07-23T06:18:18;10.25;;;9.25;;
29916;SDS011;16786;49.466;11.068;2022-07-23T06:20:46;9.82;;;8.98;;
29916;SDS011;16786;49.466;11.068;2022-07-23T06:23:17;9.23;;;8.43;;
29916;SDS011;16786;49.466;11.068;2022-07-23T06:25:44;9.27;;;8.35;;
29916;SDS011;16786;49.466;11.068;2022-07-23T06:28:11;9.63;;;8.73;;
29916;SDS011;16786;49.466;11.068;2022-07-23T06:30:41;10.02;;;8.95;;
29916;SDS011;16786;49.466;11.068;2022-07-23T06:33:09;9.65;;;8.75;;
29916;SDS011;16786;49.466;11.068;2022-07-23T06:35:38;9.82;;;8.82;;
29916;SDS011;16786;49.466;11.068;2022-07-23T06:38:06;12.25;;;9.68;;
29916;SDS011;16786;49.466;11.068;2022-07-23T06:40:34;9.93;;;9.02;;
29916;SDS011;16786;49.466;11.068;2022-07-23T06:43:01;11.70;;;9.23;;
29916;SDS011;16786;49.466;11.068;2022-07-23T06:45:32;11.37;;;9.10;;
29916;SDS011;16786;49.466;11.068;2022-07-23T06:48:00;9.68;;;8.77;;
29916;SDS011;16786;49.466;11.068;2022-07-23T06:50:29;10.07;;;9.13;;
29916;SDS011;16786;49.466;11.068;2022-07-23T06:52:56;9.38;;;8.27;;
29916;SDS011;16786;49.466;11.068;2022-07-23T06:55:23;10.10;;;9.20;;
29916;SDS011;16786;49.466;11.068;2022-07-23T06:57:51;10.32;;;9.25;;
29916;SDS011;16786;49.466;11.068;2022-07-23T07:00:18;10.65;;;9.55;;
29916;SDS011;16786;49.466;11.068;2022-07-23T07:02:46;10.88;;;9.25;;
29916;SDS011;16786;49.466;11.068;2022-07-23T07:05:14;12.93;;;9.48;;
29916;SDS011;16786;49.466;11.068;2022-07-23T07:07:41;10.77;;;9.65;;
29916;SDS011;16786;49.466;11.068;2022-07-23T07:10:08;10.27;;;9.18;;
29916;SDS011;16786;49.466;11.068;2022-07-23T07:12:41;10.93;;;9.82;;
29916;SDS011;16786;49.466;11.068;2022-07-23T07:15:09;11.73;;;9.90;;
29916;SDS011;16786;49.466;11.068;2022-07-23T07:17:36;10.68;;;9.57;;
29916;SDS011;16786;49.466;11.068;2022-07-23T07:20:04;14.30;;;10.52;;
29916;SDS011;16786;49.466;11.068;2022-07-23T07:22:32;11.77;;;10.27;;
29916;SDS011;16786;49.466;11.068;2022-07-23T07:24:59;12.00;;;10.70;;
29916;SDS011;16786;49.466;11.068;2022-07-23T07:27:27;11.15;;;10.13;;
29916;SDS011;16786;49.466;11.068;2022-07-23T07:29:54;11.63;;;10.45;;
29916;SDS011;16786;49.466;11.068;2022-07-23T07:32:21;11.95;;;10.73;;
29916;SDS011;16786;49.466;11.068;2022-07-23T07:35:09;11.23;;;10.07;;
29916;SDS011;16786;49.466;11.068;2022-07-23T07:37:36;10.55;;;9.65;;
29916;SDS011;16786;49.466;11.068;2022-07-23T07:40:04;12.10;;;10.90;;
29916;SDS011;16786;49.466;11.068;2022-07-23T07:42:32;12.82;;;10.02;;
29916;SDS011;16786;49.466;11.068;2022-07-23T07:44:59;13.50;;;10.25;;
29916;SDS011;16786;49.466;11.068;2022-07-23T07:47:27;12.32;;;10.98;;
29916;SDS011;16786;49.466;11.068;2022-07-23T07:49:54;15.13;;;10.95;;
29916;SDS011;16786;49.466;11.068;2022-07-23T07:52:23;12.25;;;10.25;;
29916;SDS011;16786;49.466;11.068;2022-07-23T07:54:51;12.05;;;10.85;;
29916;SDS011;16786;49.466;11.068;2022-07-23T07:57:18;12.48;;;10.65;;
29916;SDS011;16786;49.466;11.068;2022-07-23T07:59:46;12.98;;;11.27;;
29916;SDS011;16786;49.466;11.068;2022-07-23T08:02:20;12.98;;;11.20;;
29916;SDS011;16786;49.466;11.068;2022-07-23T08:04:48;13.35;;;10.95;;
29916;SDS011;16786;49.466;11.068;2022-07-23T08:07:15;12.57;;;11.27;;
29916;SDS011;16786;49.466;11.068;2022-07-23T08:09:43;11.77;;;10.68;;
29916;SDS011;16786;49.466;11.068;2022-07-23T08:12:10;13.25;;;10.93;;
29916;SDS011;16786;49.466;11.068;2022-07-23T08:14:37;12.55;;;11.35;;
29916;SDS011;16786;49.466;11.068;2022-07-23T08:17:05;12.30;;;11.10;;
29916;SDS011;16786;49.466;11.068;2022-07-23T08:19:41;15.77;;;11.68;;
29916;SDS011;16786;49.466;11.068;2022-07-23T08:22:08;13.55;;;12.10;;
29916;SDS011;16786;49.466;11.068;2022-07-23T08:24:36;12.38;;;11.15;;
29916;SDS011;16786;49.466;11.068;2022-07-23T08:27:03;15.05;;;10.88;;
29916;SDS011;16786;49.466;11.068;2022-07-23T08:29:30;15.95;;;12.30;;
29916;SDS011;16786;49.466;11.068;2022-07-23T08:31:58;12.27;;;10.90;;
29916;SDS011;16786;49.466;11.068;2022-07-23T08:34:40;12.98;;;11.18;;
29916;SDS011;16786;49.466;11.068;2022-07-23T08:37:10;12.45;;;10.23;;
29916;SDS011;16786;49.466;11.068;2022-07-23T08:39:37;12.23;;;11.07;;
29916;SDS011;16786;49.466;11.068;2022-07-23T08:42:04;14.48;;;11.88;;
29916;SDS011;16786;49.466;11.068;2022-07-23T08:44:33;12.57;;;11.27;;
29916;SDS011;16786;49.466;11.068;2022-07-23T08:47:02;12.18;;;10.90;;
29916;SDS011;16786;49.466;11.068;2022-07-23T08:49:29;11.63;;;10.05;;
29916;SDS011;16786;49.466;11.068;2022-07-23T08:51:58;10.93;;;9.82;;
29916;SDS011;16786;49.466;11.068;2022-07-23T08:54:25;10.45;;;9.43;;
29916;SDS011;16786;49.466;11.068;2022-07-23T08:56:53;10.52;;;9.52;;
29916;SDS011;16786;49.466;11.068;2022-07-23T08:59:20;10.95;;;9.82;;
29916;SDS011;16786;49.466;11.068;2022-07-23T09:01:47;11.50;;;10.25;;
29916;SDS011;16786;49.466;11.068;2022-07-23T09:04:15;10.45;;;9.43;;
29916;SDS011;16786;49.466;11.068;2022-07-23T09:06:42;11.48;;;10.30;;
29916;SDS011;16786;49.466;11.068;2022-07-23T09:09:17;14.52;;;11.65;;
29916;SDS011;16786;49.466;11.068;2022-07-23T09:11:46;12.90;;;10.23;;
29916;SDS011;16786;49.466;11.068;2022-07-23T09:14:14;13.07;;;10.02;;
29916;SDS011;16786;49.466;11.068;2022-07-23T09:16:41;11.23;;;10.02;;
29916;SDS011;16786;49.466;11.068;2022-07-23T09:19:10;13.70;;;10.07;;
29916;SDS011;16786;49.466;11.068;2022-07-23T09:21:40;12.77;;;9.95;;
29916;SDS011;16786;49.466;11.068;2022-07-23T09:26:37;11.00;;;9.63;;
29916;SDS011;16786;49.466;11.068;2022-07-23T09:29:10;10.70;;;9.73;;
29916;SDS011;16786;49.466;11.068;2022-07-23T09:31:49;9.82;;;8.90;;
29916;SDS011;16786;49.466;11.068;2022-07-23T09:36:46;10.27;;;9.05;;
29916;SDS011;16786;49.466;11.068;2022-07-23T09:39:16;11.18;;;9.35;;
29916;SDS011;16786;49.466;11.068;2022-07-23T09:41:52;10.27;;;9.27;;
29916;SDS011;16786;49.466;11.068;2022-07-23T09:44:20;9.63;;;8.50;;
29916;SDS011;16786;49.466;11.068;2022-07-23T09:46:57;10.70;;;9.70;;
29916;SDS011;16786;49.466;11.068;2022-07-23T09:49:26;12.98;;;9.45;;
29916;SDS011;16786;49.466;11.068;2022-07-23T09:51:56;10.40;;;9.30;;
29916;SDS011;16786;49.466;11.068;2022-07-23T09:54:29;10.18;;;9.13;;
29916;SDS011;16786;49.466;11.068;2022-07-23T09:57:00;12.82;;;9.90;;
29916;SDS011;16786;49.466;11.068;2022-07-23T09:59:32;12.07;;;9.32;;
29916;SDS011;16786;49.466;11.068;2022-07-23T10:02:01;10.75;;;8.57;;
29916;SDS011;16786;49.466;11.068;2022-07-23T10:04:34;13.32;;;10.35;;
29916;SDS011;16786;49.466;11.068;2022-07-23T10:07:13;10.30;;;9.20;;
29916;SDS011;16786;49.466;11.068;2022-07-23T10:10:03;11.63;;;9.60;;
29916;SDS011;16786;49.466;11.068;2022-07-23T10:12:44;11.00;;;9.88;;
29916;SDS011;16786;49.466;11.068;2022-07-23T10:15:11;11.43;;;9.27;;
29916;SDS011;16786;49.466;11.068;2022-07-23T10:17:39;14.07;;;9.80;;
29916;SDS011;16786;49.466;11.068;2022-07-23T10:20:06;10.38;;;9.27;;
29916;SDS011;16786;49.466;11.068;2022-07-23T10:22:38;12.57;;;9.65;;
29916;SDS011;16786;49.466;11.068;2022-07-23T10:28:06;11.75;;;9.77;;
29916;SDS011;16786;49.466;11.068;2022-07-23T10:36:47;10.70;;;9.15;;
29916;SDS011;16786;49.466;11.068;2022-07-23T10:39:30;11.63;;;9.38;;
29916;SDS011;16786;49.466;11.068;2022-07-23T10:42:09;12.43;;;10.85;;
29916;SDS011;16786;49.466;11.068;2022-07-23T10:44:42;11.85;;;9.82;;
29916;SDS011;16786;49.466;11.068;2022-07-23T10:47:29;11.48;;;9.90;;
29916;SDS011;16786;49.466;11.068;2022-07-23T10:50:23;11.43;;;9.98;;
29916;SDS011;16786;49.466;11.068;2022-07-23T10:58:04;13.20;;;9.68;;
29916;SDS011;16786;49.466;11.068;2022-07-23T11:00:33;11.77;;;10.55;;
29916;SDS011;16786;49.466;11.068;2022-07-23T11:03:03;13.48;;;10.35;;
29916;SDS011;16786;49.466;11.068;2022-07-23T11:05:43;12.27;;;10.32;;
29916;SDS011;16786;49.466;11.068;2022-07-23T11:08:13;13.80;;;10.35;;
29916;SDS011;16786;49.466;11.068;2022-07-23T11:26:57;10.93;;;9.82;;
29916;SDS011;16786;49.466;11.068;2022-07-23T11:32:00;11.77;;;8.95;;
29916;SDS011;16786;49.466;11.068;2022-07-23T11:37:08;9.90;;;8.90;;
29916;SDS011;16786;49.466;11.068;2022-07-23T11:39:38;10.63;;;9.35;;
29916;SDS011;16786;49.466;11.068;2022-07-23T11:42:06;10.95;;;9.15;;
29916;SDS011;16786;49.466;11.068;2022-07-23T11:44:36;10.55;;;8.75;;
29916;SDS011;16786;49.466;11.068;2022-07-23T11:47:10;14.02;;;9.70;;
29916;SDS011;16786;49.466;11.068;2022-07-23T11:50:00;10.88;;;8.55;;
29916;SDS011;16786;49.466;11.068;2022-07-23T11:52:30;10.35;;;9.00;;
29916;SDS011;16786;49.466;11.068;2022-07-23T11:55:08;10.50;;;9.02;;
29916;SDS011;16786;49.466;11.068;2022-07-23T11:57:37;9.30;;;8.35;;
29916;SDS011;16786;49.466;11.068;2022-07-23T12:02:39;9.75;;;8.40;;
29916;SDS011;16786;49.466;11.068;2022-07-23T12:05:11;9.68;;;8.68;;
29916;SDS011;16786;49.466;11.068;2022-07-23T12:07:50;9.95;;;8.55;;
29916;SDS011;16786;49.466;11.068;2022-07-23T12:10:20;9.52;;;8.63;;
29916;SDS011;16786;49.466;11.068;2022-07-23T12:12:52;9.90;;;8.90;;
29916;SDS011;16786;49.466;11.068;2022-07-23T12:15:22;10.85;;;9.77;;
29916;SDS011;16786;49.466;11.068;2022-07-23T12:17:55;10.10;;;9.13;;
29916;SDS011;16786;49.466;11.068;2022-07-23T12:20:24;10.15;;;8.70;;
29916;SDS011;16786;49.466;11.068;2022-07-23T12:22:55;10.52;;;9.43;;
29916;SDS011;16786;49.466;11.068;2022-07-23T12:25:26;9.88;;;8.90;;
29916;SDS011;16786;49.466;11.068;2022-07-23T12:28:12;10.73;;;9.73;;
29916;SDS011;16786;49.466;11.068;2022-07-23T12:30:50;10.85;;;9.85;;
29916;SDS011;16786;49.466;11.068;2022-07-23T12:33:26;10.55;;;9.25;;
29916;SDS011;16786;49.466;11.068;2022-07-23T12:35:59;11.75;;;9.55;;
29916;SDS011;16786;49.466;11.068;2022-07-23T12:38:29;12.68;;;10.18;;
29916;SDS011;16786;49.466;11.068;2022-07-23T12:41:10;10.80;;;9.70;;
29916;SDS011;16786;49.466;11.068;2022-07-23T12:43:42;10.15;;;8.98;;
29916;SDS011;16786;49.466;11.068;2022-07-23T12:51:27;10.57;;;9.57;;
29916;SDS011;16786;49.466;11.068;2022-07-23T12:54:04;13.20;;;9.68;;
29916;SDS011;16786;49.466;11.068;2022-07-23T12:56:37;10.25;;;9.25;;
29916;SDS011;16786;49.466;11.068;2022-07-23T12:59:08;11.45;;;9.48;;
29916;SDS011;16786;49.466;11.068;2022-07-23T13:01:45;12.32;;;9.43;;
29916;SDS011;16786;49.466;11.068;2022-07-23T13:04:25;9.82;;;8.85;;
29916;SDS011;16786;49.466;11.068;2022-07-23T13:07:01;10.35;;;9.20;;
29916;SDS011;16786;49.466;11.068;2022-07-23T13:09:31;10.30;;;9.30;;
29916;SDS011;16786;49.466;11.068;2022-07-23T13:12:08;10.48;;;9.48;;
29916;SDS011;16786;49.466;11.068;2022-07-23T13:14:37;10.75;;;9.68;;
29916;SDS011;16786;49.466;11.068;2022-07-23T13:17:08;10.70;;;9.60;;
29916;SDS011;16786;49.466;11.068;2022-07-23T13:19:36;10.13;;;9.23;;
29916;SDS011;16786;49.466;11.068;2022-07-23T13:22:04;10.18;;;8.70;;
29916;SDS011;16786;49.466;11.068;2022-07-23T13:24:52;10.80;;;8.95;;
29916;SDS011;16786;49.466;11.068;2022-07-23T13:27:20;10.50;;;9.40;;
29916;SDS011;16786;49.466;11.068;2022-07-23T13:29:50;10.05;;;9.15;;
29916;SDS011;16786;49.466;11.068;2022-07-23T13:32:19;9.68;;;8.80;;
29916;SDS011;16786;49.466;11.068;2022-07-23T13:34:47;11.23;;;8.88;;
29916;SDS011;16786;49.466;11.068;2022-07-23T13:37:17;11.05;;;9.95;;
29916;SDS011;16786;49.466;11.068;2022-07-23T13:39:45;10.30;;;9.30;;
29916;SDS011;16786;49.466;11.068;2022-07-23T13:42:13;10.30;;;9.40;;
29916;SDS011;16786;49.466;11.068;2022-07-23T13:44:41;9.32;;;8.43;;
29916;SDS011;16786;49.466;11.068;2022-07-23T13:47:09;10.00;;;9.10;;
29916;SDS011;16786;49.466;11.068;2022-07-23T13:49:40;10.00;;;9.00;;
29916;SDS011;16786;49.466;11.068;2022-07-23T13:52:07;10.50;;;9.50;;
29916;SDS011;16786;49.466;11.068;2022-07-23T13:54:36;10.40;;;9.27;;
29916;SDS011;16786;49.466;11.068;2022-07-23T13:57:05;10.82;;;9.15;;
29916;SDS011;16786;49.466;11.068;2022-07-23T13:59:32;10.65;;;9.65;;
29916;SDS011;16786;49.466;11.068;2022-07-23T14:02:01;10.60;;;9.57;;
29916;SDS011;16786;49.466;11.068;2022-07-23T14:04:48;10.50;;;9.60;;
29916;SDS011;16786;49.466;11.068;2022-07-23T14:07:16;9.85;;;8.95;;
29916;SDS011;16786;49.466;11.068;2022-07-23T14:09:45;9.90;;;9.00;;
29916;SDS011;16786;49.466;11.068;2022-07-23T14:12:13;10.10;;;9.20;;
29916;SDS011;16786;49.466;11.068;2022-07-23T14:14:43;10.35;;;9.45;;
29916;SDS011;16786;49.466;11.068;2022-07-23T14:17:11;10.07;;;8.98;;
29916;SDS011;16786;49.466;11.068;2022-07-23T14:19:39;9.80;;;9.00;;
29916;SDS011;16786;49.466;11.068;2022-07-23T14:22:08;10.48;;;9.48;;
29916;SDS011;16786;49.466;11.068;2022-07-23T14:24:36;9.93;;;9.02;;
29916;SDS011;16786;49.466;11.068;2022-07-23T14:27:04;10.55;;;9.57;;
29916;SDS011;16786;49.466;11.068;2022-07-23T14:29:32;10.88;;;9.88;;
29916;SDS011;16786;49.466;11.068;2022-07-23T14:32:00;10.63;;;9.73;;
29916;SDS011;16786;49.466;11.068;2022-07-23T14:34:29;10.10;;;9.18;;
29916;SDS011;16786;49.466;11.068;2022-07-23T14:36:57;11.27;;;9.82;;
29916;SDS011;16786;49.466;11.068;2022-07-23T14:39:24;11.10;;;10.00;;
29916;SDS011;16786;49.466;11.068;2022-07-23T14:41:53;10.30;;;9.30;;
29916;SDS011;16786;49.466;11.068;2022-07-23T14:44:20;10.73;;;9.73;;
29916;SDS011;16786;49.466;11.068;2022-07-23T14:46:48;10.93;;;9.27;;
29916;SDS011;16786;49.466;11.068;2022-07-23T14:49:16;10.23;;;9.27;;
29916;SDS011;16786;49.466;11.068;2022-07-23T14:51:43;9.95;;;9.10;;
29916;SDS011;16786;49.466;11.068;2022-07-23T14:54:11;10.20;;;9.15;;
29916;SDS011;16786;49.466;11.068;2022-07-23T14:56:39;12.55;;;9.20;;
29916;SDS011;16786;49.466;11.068;2022-07-23T14:59:07;9.68;;;8.88;;
29916;SDS011;16786;49.466;11.068;2022-07-23T15:01:35;10.63;;;9.55;;
29916;SDS011;16786;49.466;11.068;2022-07-23T15:04:03;10.90;;;9.18;;
29916;SDS011;16786;49.466;11.068;2022-07-23T15:06:52;9.30;;;8.50;;
29916;SDS011;16786;49.466;11.068;2022-07-23T15:09:19;9.88;;;8.88;;
29916;SDS011;16786;49.466;11.068;2022-07-23T15:11:46;10.60;;;9.30;;
29916;SDS011;16786;49.466;11.068;2022-07-23T15:14:14;10.63;;;9.52;;
29916;SDS011;16786;49.466;11.068;2022-07-23T15:16:55;9.45;;;8.57;;
29916;SDS011;16786;49.466;11.068;2022-07-23T15:19:22;10.75;;;9.65;;
29916;SDS011;16786;49.466;11.068;2022-07-23T15:21:50;10.02;;;9.13;;